createdAt,value
2023-05-19T00:00:41.584Z,47.56
2023-05-19T00:01:41.523Z,47.49
2023-05-19T00:02:41.652Z,47.99
2023-05-19T00:03:41.633Z,47.94
2023-05-19T00:04:41.648Z,47.77
2023-05-19T00:05:41.751Z,47.85
2023-05-19T00:06:41.702Z,47.56
2023-05-19T00:07:41.725Z,47.70
2023-05-19T00:08:41.745Z,47.77
2023-05-19T00:09:41.773Z,47.67
2023-05-19T00:10:41.833Z,47.84
2023-05-19T00:11:41.908Z,47.83
2023-05-19T00:12:41.986Z,48.11
2023-05-19T00:13:41.994Z,47.74
2023-05-19T00:14:42.003Z,47.76
2023-05-19T00:15:42.048Z,47.81
2023-05-19T00:16:42.025Z,47.87
2023-05-19T00:17:42.139Z,47.67
2023-05-19T00:18:42.159Z,47.66
2023-05-19T00:19:42.170Z,47.71
2023-05-19T00:20:42.249Z,47.98
2023-05-19T00:21:42.315Z,47.99
2023-05-19T00:22:42.377Z,47.87
2023-05-19T00:23:42.436Z,47.83
2023-05-19T00:24:42.489Z,47.96
2023-05-19T00:25:42.537Z,48.10
2023-05-19T00:26:42.651Z,48.08
2023-05-19T00:27:42.686Z,48.08
2023-05-19T00:28:42.736Z,48.28
2023-05-19T00:29:42.833Z,48.32
2023-05-19T00:30:42.879Z,48.14
2023-05-19T00:31:42.929Z,48.30
2023-05-19T00:32:42.997Z,48.42
2023-05-19T00:33:43.020Z,48.73
2023-05-19T00:34:43.049Z,48.63
2023-05-19T00:35:43.201Z,48.59
2023-05-19T00:36:43.206Z,48.81
2023-05-19T00:37:43.268Z,48.41
2023-05-19T00:38:43.299Z,48.28
2023-05-19T00:39:43.375Z,48.38
2023-05-19T00:40:43.436Z,48.43
2023-05-19T00:41:43.458Z,48.41
2023-05-19T00:42:43.526Z,48.33
2023-05-19T00:43:43.580Z,48.29
2023-05-19T00:44:43.640Z,48.43
2023-05-19T00:45:43.710Z,48.48
2023-05-19T00:46:43.819Z,48.47
2023-05-19T00:47:43.854Z,48.64
2023-05-19T00:48:43.824Z,48.60
2023-05-19T00:49:43.826Z,48.56
2023-05-19T00:50:43.874Z,48.70
2023-05-19T00:51:43.871Z,48.78
2023-05-19T00:52:43.908Z,48.81
2023-05-19T00:53:43.974Z,48.88
2023-05-19T00:54:44.020Z,48.92
2023-05-19T00:55:44.095Z,49.18
2023-05-19T00:56:44.140Z,49.01
2023-05-19T00:57:44.147Z,48.92
2023-05-19T00:58:44.189Z,48.92
2023-05-19T00:59:44.236Z,49.07
2023-05-19T01:00:44.292Z,49.27
2023-05-19T01:01:44.311Z,48.98
2023-05-19T01:02:44.390Z,49.08
2023-05-19T01:03:44.487Z,49.06
2023-05-19T01:04:44.417Z,49.00
2023-05-19T01:05:44.454Z,48.74
2023-05-19T01:06:44.454Z,48.84
2023-05-19T01:07:44.475Z,48.83
2023-05-19T01:08:44.454Z,48.73
2023-05-19T01:09:44.433Z,48.97
2023-05-19T01:10:44.485Z,48.61
2023-05-19T01:11:44.563Z,48.89
2023-05-19T01:12:44.554Z,48.90
2023-05-19T01:13:44.520Z,48.77
2023-05-19T01:14:44.514Z,48.67
2023-05-19T01:15:44.550Z,48.72
2023-05-19T01:16:44.597Z,48.79
2023-05-19T01:17:44.540Z,49.09
2023-05-19T01:18:44.612Z,49.07
2023-05-19T01:19:44.565Z,49.01
2023-05-19T01:20:44.568Z,49.15
2023-05-19T01:21:44.680Z,49.17
2023-05-19T01:22:44.569Z,49.31
2023-05-19T01:23:44.577Z,48.70
2023-05-19T01:24:44.609Z,48.69
2023-05-19T01:25:44.660Z,48.80
2023-05-19T01:26:44.605Z,48.98
2023-05-19T01:27:44.624Z,48.99
2023-05-19T01:28:44.582Z,48.92
2023-05-19T01:29:44.574Z,48.78
2023-05-19T01:30:44.667Z,48.57
2023-05-19T01:31:44.610Z,48.86
2023-05-19T01:32:44.609Z,48.98
2023-05-19T01:33:44.628Z,48.88
2023-05-19T01:34:44.613Z,48.87
2023-05-19T01:35:44.623Z,48.88
2023-05-19T01:36:44.701Z,49.29
2023-05-19T01:37:44.681Z,49.48
2023-05-19T01:38:44.686Z,49.50
2023-05-19T01:39:44.737Z,49.58
2023-05-19T01:40:44.730Z,49.56
2023-05-19T01:41:44.725Z,49.77
2023-05-19T01:42:44.779Z,49.60
2023-05-19T01:43:44.780Z,49.55
2023-05-19T01:44:44.745Z,49.42
2023-05-19T01:45:44.797Z,49.66
2023-05-19T01:46:44.815Z,49.39
2023-05-19T01:47:44.841Z,49.27
2023-05-19T01:48:44.811Z,49.37
2023-05-19T01:49:44.824Z,49.42
2023-05-19T01:50:44.829Z,49.35
2023-05-19T01:51:44.831Z,49.28
2023-05-19T01:52:44.855Z,49.57
2023-05-19T01:53:44.867Z,49.47
2023-05-19T01:54:45.085Z,49.74
2023-05-19T01:55:44.899Z,49.79
2023-05-19T01:56:44.883Z,49.82
2023-05-19T01:57:44.868Z,49.65
2023-05-19T01:58:44.868Z,49.58
2023-05-19T01:59:44.902Z,49.61
2023-05-19T02:00:44.928Z,49.63
2023-05-19T02:01:45.086Z,49.66
2023-05-19T02:02:44.987Z,49.61
2023-05-19T02:03:44.923Z,49.54
2023-05-19T02:04:45.008Z,49.37
2023-05-19T02:05:44.937Z,49.35
2023-05-19T02:06:44.938Z,49.32
2023-05-19T02:07:45.015Z,49.47
2023-05-19T02:08:44.920Z,49.40
2023-05-19T02:09:44.972Z,49.25
2023-05-19T02:10:45.009Z,49.35
2023-05-19T02:11:44.994Z,49.26
2023-05-19T02:12:45.012Z,49.58
2023-05-19T02:13:44.997Z,49.83
2023-05-19T02:14:45.031Z,49.73
2023-05-19T02:15:45.056Z,49.99
2023-05-19T02:16:45.132Z,49.67
2023-05-19T02:17:45.120Z,49.59
2023-05-19T02:18:45.249Z,49.54
2023-05-19T02:19:45.140Z,49.57
2023-05-19T02:20:45.184Z,49.69
2023-05-19T02:21:45.234Z,49.76
2023-05-19T02:22:45.239Z,49.79
2023-05-19T02:23:45.316Z,49.76
2023-05-19T02:24:45.297Z,49.76
2023-05-19T02:25:45.342Z,49.56
2023-05-19T02:26:45.386Z,49.56
2023-05-19T02:27:45.378Z,49.73
2023-05-19T02:28:45.425Z,49.86
2023-05-19T02:29:45.430Z,49.69
2023-05-19T02:30:45.494Z,50.00
2023-05-19T02:31:45.578Z,49.87
2023-05-19T02:32:45.567Z,49.70
2023-05-19T02:33:45.598Z,49.76
2023-05-19T02:34:45.704Z,49.86
2023-05-19T02:35:45.673Z,49.77
2023-05-19T02:36:45.691Z,49.85
2023-05-19T02:37:45.733Z,49.72
2023-05-19T02:38:45.788Z,49.59
2023-05-19T02:39:45.824Z,49.67
2023-05-19T02:40:45.877Z,49.80
2023-05-19T02:41:45.911Z,49.75
2023-05-19T02:42:45.950Z,49.96
2023-05-19T02:43:46.001Z,49.91
2023-05-19T02:44:46.026Z,50.12
2023-05-19T02:45:46.101Z,50.30
2023-05-19T02:46:46.232Z,50.23
2023-05-19T02:47:46.318Z,50.06
2023-05-19T02:48:46.251Z,49.88
2023-05-19T02:49:46.289Z,50.00
2023-05-19T02:50:46.371Z,50.22
2023-05-19T02:51:46.416Z,50.14
2023-05-19T02:52:46.475Z,50.00
2023-05-19T02:53:46.475Z,50.33
2023-05-19T02:54:46.523Z,50.40
2023-05-19T02:55:46.598Z,50.11
2023-05-19T02:56:46.594Z,50.32
2023-05-19T02:57:46.659Z,50.21
2023-05-19T02:58:46.702Z,50.28
2023-05-19T02:59:46.777Z,49.99
2023-05-19T03:00:46.801Z,50.02
2023-05-19T03:01:46.907Z,49.79
2023-05-19T03:02:47.073Z,49.72
2023-05-19T03:03:47.097Z,49.67
2023-05-19T03:04:47.023Z,49.80
2023-05-19T03:05:47.110Z,49.89
2023-05-19T03:06:47.118Z,49.84
2023-05-19T03:07:47.183Z,50.11
2023-05-19T03:08:47.235Z,50.31
2023-05-19T03:09:47.323Z,50.46
2023-05-19T03:10:47.361Z,50.20
2023-05-19T03:11:47.425Z,50.51
2023-05-19T03:12:47.420Z,50.32
2023-05-19T03:13:47.478Z,50.25
2023-05-19T03:14:47.565Z,50.28
2023-05-19T03:15:47.672Z,50.43
2023-05-19T03:16:47.839Z,50.77
2023-05-19T03:17:47.833Z,50.62
2023-05-19T03:18:47.877Z,50.60
2023-05-19T03:19:47.823Z,50.44
2023-05-19T03:20:47.904Z,50.46
2023-05-19T03:21:47.958Z,50.60
2023-05-19T03:22:48.013Z,50.51
2023-05-19T03:23:48.059Z,50.39
2023-05-19T03:24:48.122Z,50.68
2023-05-19T03:25:48.184Z,50.58
2023-05-19T03:26:48.221Z,50.65
2023-05-19T03:27:48.299Z,50.84
2023-05-19T03:28:48.359Z,50.70
2023-05-19T03:29:48.431Z,50.71
2023-05-19T03:30:48.491Z,50.71
2023-05-19T03:31:48.535Z,50.56
2023-05-19T03:32:48.684Z,50.37
2023-05-19T03:33:48.635Z,50.40
2023-05-19T03:34:48.697Z,50.33
2023-05-19T03:35:48.779Z,50.39
2023-05-19T03:36:48.834Z,50.33
2023-05-19T03:37:48.898Z,50.34
2023-05-19T03:38:48.963Z,50.27
2023-05-19T03:39:48.925Z,50.44
2023-05-19T03:40:49.016Z,50.67
2023-05-19T03:41:49.064Z,50.45
2023-05-19T03:42:49.070Z,50.37
2023-05-19T03:43:49.128Z,50.31
2023-05-19T03:44:49.173Z,50.50
2023-05-19T03:45:49.288Z,50.60
2023-05-19T03:46:49.298Z,50.82
2023-05-19T03:47:49.379Z,50.80
2023-05-19T03:48:49.355Z,50.67
2023-05-19T03:49:49.369Z,50.62
2023-05-19T03:50:49.388Z,50.54
2023-05-19T03:51:49.380Z,50.61
2023-05-19T03:52:49.403Z,50.58
2023-05-19T03:53:49.428Z,50.53
2023-05-19T03:54:49.427Z,50.57
2023-05-19T03:55:49.404Z,50.78
2023-05-19T03:56:49.463Z,50.61
2023-05-19T03:57:49.419Z,50.70
2023-05-19T03:58:49.460Z,50.63
2023-05-19T03:59:49.492Z,50.54
2023-05-19T04:00:49.554Z,50.56
2023-05-19T04:01:49.558Z,50.48
2023-05-19T04:02:49.725Z,50.57
2023-05-19T04:03:49.581Z,50.74
2023-05-19T04:04:49.665Z,50.78
2023-05-19T04:05:49.597Z,50.70
2023-05-19T04:06:49.586Z,50.72
2023-05-19T04:07:49.619Z,50.74
2023-05-19T04:08:49.610Z,50.73
2023-05-19T04:09:49.682Z,50.54
2023-05-19T04:10:49.696Z,50.53
2023-05-19T04:11:49.690Z,50.60
2023-05-19T04:12:50.020Z,50.41
2023-05-19T04:13:49.680Z,50.57
2023-05-19T04:14:49.690Z,50.46
2023-05-19T04:15:49.723Z,50.51
2023-05-19T04:16:49.745Z,50.44
2023-05-19T04:17:49.735Z,50.54
2023-05-19T04:18:49.816Z,50.66
2023-05-19T04:19:49.784Z,50.70
2023-05-19T04:20:49.851Z,50.87
2023-05-19T04:21:49.912Z,51.09
2023-05-19T04:22:49.943Z,51.15
2023-05-19T04:23:50.027Z,51.12
2023-05-19T04:24:50.037Z,50.86
2023-05-19T04:25:50.130Z,50.85
2023-05-19T04:26:50.144Z,50.94
2023-05-19T04:27:50.174Z,50.96
2023-05-19T04:28:50.177Z,51.12
2023-05-19T04:29:50.197Z,51.05
2023-05-19T04:30:50.234Z,50.99
2023-05-19T04:31:50.208Z,51.18
2023-05-19T04:32:50.291Z,51.36
2023-05-19T04:33:50.197Z,51.34
2023-05-19T04:34:50.254Z,51.54
2023-05-19T04:35:50.331Z,51.75
2023-05-19T04:36:52.457Z,51.58
2023-05-19T04:37:50.266Z,51.55
2023-05-19T04:38:50.245Z,51.24
2023-05-19T04:39:50.239Z,50.80
2023-05-19T04:40:50.451Z,50.92
2023-05-19T04:41:50.249Z,50.60
2023-05-19T04:42:50.220Z,50.58
2023-05-19T04:43:50.252Z,50.65
2023-05-19T04:44:50.201Z,50.80
2023-05-19T04:45:50.260Z,50.74
2023-05-19T04:46:50.330Z,50.52
2023-05-19T04:47:50.203Z,50.35
2023-05-19T04:48:51.389Z,50.51
2023-05-19T04:49:50.221Z,50.91
2023-05-19T04:50:50.190Z,50.64
2023-05-19T04:51:50.161Z,50.45
2023-05-19T04:52:50.165Z,50.28
2023-05-19T04:53:50.158Z,50.20
2023-05-19T04:54:50.209Z,50.40
2023-05-19T04:55:50.143Z,50.26
2023-05-19T04:56:50.129Z,50.24
2023-05-19T04:57:50.132Z,50.55
2023-05-19T04:58:50.088Z,50.64
2023-05-19T04:59:50.065Z,50.84
2023-05-19T05:02:09.898Z,50.31
2023-05-19T05:03:09.923Z,50.44
2023-05-19T05:04:09.904Z,50.12
2023-05-19T05:05:09.843Z,50.13
2023-05-19T05:06:09.837Z,50.04
2023-05-19T05:07:09.794Z,49.96
2023-05-19T05:08:09.841Z,49.88
2023-05-19T05:09:09.797Z,50.16
2023-05-19T05:10:09.821Z,50.05
2023-05-19T05:11:09.809Z,49.91
2023-05-19T05:12:09.873Z,49.76
2023-05-19T05:13:11.735Z,50.11
2023-05-19T05:14:09.798Z,49.87
2023-05-19T05:15:09.730Z,49.72
2023-05-19T05:16:09.851Z,49.74
2023-05-19T05:17:09.714Z,49.81
2023-05-19T05:18:09.770Z,49.76
2023-05-19T05:19:09.800Z,49.72
2023-05-19T05:20:09.749Z,49.76
2023-05-19T05:21:09.848Z,49.78
2023-05-19T05:22:09.834Z,49.69
2023-05-19T05:23:09.903Z,49.89
2023-05-19T05:24:09.880Z,49.72
2023-05-19T05:25:09.920Z,49.65
2023-05-19T05:26:09.961Z,49.63
2023-05-19T05:27:09.965Z,49.54
2023-05-19T05:28:09.967Z,49.46
2023-05-19T05:29:09.981Z,49.56
2023-05-19T05:30:09.989Z,49.65
2023-05-19T05:31:10.098Z,49.74
2023-05-19T05:32:10.063Z,49.66
2023-05-19T05:33:10.212Z,49.40
2023-05-19T05:34:10.120Z,49.31
2023-05-19T05:35:10.129Z,49.49
2023-05-19T05:36:10.137Z,49.58
2023-05-19T05:37:10.198Z,49.53
2023-05-19T05:38:10.144Z,49.66
2023-05-19T05:39:10.210Z,49.90
2023-05-19T05:40:10.250Z,49.21
2023-05-19T05:41:10.232Z,49.28
2023-05-19T05:42:10.226Z,49.78
2023-05-19T05:43:10.284Z,49.34
2023-05-19T05:44:10.296Z,49.27
2023-05-19T05:45:10.329Z,49.22
2023-05-19T05:47:30.304Z,49.80
2023-05-19T05:48:30.251Z,49.89
2023-05-19T05:49:30.240Z,49.72
2023-05-19T05:50:30.220Z,49.94
2023-05-19T05:51:30.234Z,49.55
2023-05-19T05:52:30.206Z,49.87
2023-05-19T05:53:30.215Z,49.90
2023-05-19T05:54:30.191Z,49.81
2023-05-19T05:55:30.349Z,49.31
2023-05-19T05:56:30.183Z,48.76
2023-05-19T05:57:30.180Z,48.82
2023-05-19T05:58:30.177Z,48.95
2023-05-19T05:59:30.165Z,49.14
2023-05-19T06:00:30.419Z,49.35
2023-05-19T06:01:30.144Z,49.02
2023-05-19T06:02:30.235Z,49.02
2023-05-19T06:03:30.218Z,48.84
2023-05-19T06:04:30.180Z,48.97
2023-05-19T06:05:30.293Z,49.05
2023-05-19T06:06:30.205Z,48.86
2023-05-19T06:07:30.248Z,49.12
2023-05-19T06:08:30.260Z,49.14
2023-05-19T06:09:30.371Z,49.39
2023-05-19T06:10:30.439Z,49.60
2023-05-19T06:11:30.364Z,49.95
2023-05-19T06:12:30.349Z,49.83
2023-05-19T06:13:30.452Z,49.39
2023-05-19T06:14:30.427Z,49.57
2023-05-19T06:15:30.541Z,49.45
2023-05-19T06:16:30.550Z,49.06
2023-05-19T06:17:30.523Z,48.89
2023-05-19T06:18:30.592Z,48.45
2023-05-19T06:19:30.594Z,48.47
2023-05-19T06:20:30.731Z,48.81
2023-05-19T06:21:30.937Z,48.43
2023-05-19T06:22:30.575Z,48.56
2023-05-19T06:23:30.639Z,48.58
2023-05-19T06:24:30.743Z,48.74
2023-05-19T06:25:30.920Z,48.55
2023-05-19T06:26:30.854Z,49.02
2023-05-19T06:27:32.567Z,48.74
2023-05-19T06:28:30.767Z,48.86
2023-05-19T06:29:30.763Z,48.71
2023-05-19T06:30:30.942Z,48.43
2023-05-19T06:31:30.832Z,48.60
2023-05-19T06:32:30.827Z,48.15
2023-05-19T06:33:30.811Z,48.19
2023-05-19T06:34:30.803Z,48.52
2023-05-19T06:35:30.890Z,48.58
2023-05-19T06:36:30.732Z,47.90
2023-05-19T06:37:30.728Z,47.60
2023-05-19T06:38:30.724Z,47.76
2023-05-19T06:39:30.739Z,47.69
2023-05-19T06:40:30.934Z,47.47
2023-05-19T06:41:30.745Z,47.42
2023-05-19T06:42:31.887Z,47.63
2023-05-19T06:43:30.667Z,47.77
2023-05-19T06:44:30.669Z,47.46
2023-05-19T06:45:30.685Z,47.46
2023-05-19T06:46:30.708Z,47.40
2023-05-19T06:47:30.767Z,47.44
2023-05-19T06:48:30.706Z,47.26
2023-05-19T06:49:31.927Z,47.32
2023-05-19T06:50:30.685Z,46.81
2023-05-19T06:51:31.687Z,46.34
2023-05-19T06:52:30.601Z,46.80
2023-05-19T06:53:30.631Z,46.55
2023-05-19T06:54:30.551Z,46.86
2023-05-19T06:55:30.647Z,47.06
2023-05-19T06:56:30.632Z,46.94
2023-05-19T06:57:30.557Z,46.43
2023-05-19T06:58:30.666Z,46.46
2023-05-19T06:59:30.555Z,46.15
2023-05-19T07:00:30.554Z,45.70
2023-05-19T07:01:30.667Z,45.57
2023-05-19T07:02:30.643Z,46.43
2023-05-19T07:03:30.698Z,47.91
2023-05-19T07:04:30.574Z,47.99
2023-05-19T07:05:30.503Z,48.08
2023-05-19T07:06:30.490Z,47.05
2023-05-19T07:07:30.537Z,45.91
2023-05-19T07:08:30.485Z,45.86
2023-05-19T07:09:30.510Z,46.48
2023-05-19T07:10:30.771Z,46.37
2023-05-19T07:11:30.494Z,46.54
2023-05-19T07:12:30.577Z,46.24
2023-05-19T07:13:30.532Z,45.64
2023-05-19T07:14:30.445Z,46.04
2023-05-19T07:15:30.451Z,46.13
2023-05-19T07:16:30.537Z,45.53
2023-05-19T07:17:30.479Z,45.86
2023-05-19T07:18:30.573Z,46.27
2023-05-19T07:19:30.718Z,46.37
2023-05-19T07:20:30.854Z,46.62
2023-05-19T07:21:30.711Z,45.73
2023-05-19T07:22:30.734Z,45.50
2023-05-19T07:23:30.818Z,45.53
2023-05-19T07:24:30.802Z,45.84
2023-05-19T07:25:30.823Z,45.59
2023-05-19T07:26:31.204Z,45.60
2023-05-19T07:27:30.945Z,45.66
2023-05-19T07:28:30.887Z,45.16
2023-05-19T07:29:30.964Z,45.81
2023-05-19T07:30:31.313Z,45.53
2023-05-19T07:31:31.106Z,45.62
2023-05-19T07:32:31.108Z,45.04
2023-05-19T07:33:31.098Z,45.36
2023-05-19T07:34:31.088Z,45.19
2023-05-19T07:35:31.107Z,45.35
2023-05-19T07:36:31.221Z,46.07
2023-05-19T07:37:31.228Z,45.62
2023-05-19T07:38:31.273Z,45.09
2023-05-19T07:39:31.170Z,45.62
2023-05-19T07:40:31.617Z,44.86
2023-05-19T07:41:31.223Z,45.07
2023-05-19T07:42:31.282Z,45.29
2023-05-19T07:43:31.359Z,44.25
2023-05-19T07:44:31.452Z,45.43
2023-05-19T07:45:31.450Z,44.06
2023-05-19T07:46:31.562Z,44.23
2023-05-19T07:47:31.543Z,44.99
2023-05-19T07:48:31.604Z,44.73
2023-05-19T07:49:31.581Z,45.01
2023-05-19T07:50:31.747Z,44.24
2023-05-19T07:51:31.652Z,44.07
2023-05-19T07:52:31.630Z,44.23
2023-05-19T07:53:31.695Z,45.50
2023-05-19T07:54:31.745Z,45.32
2023-05-19T07:55:31.745Z,45.46
2023-05-19T07:56:31.798Z,44.91
2023-05-19T07:57:31.868Z,44.69
2023-05-19T07:58:31.948Z,45.82
2023-05-19T07:59:31.982Z,45.57
2023-05-19T08:00:32.207Z,45.65
2023-05-19T08:01:32.019Z,45.38
2023-05-19T08:02:32.134Z,45.02
2023-05-19T08:03:32.163Z,45.38
2023-05-19T08:04:31.986Z,44.74
2023-05-19T08:05:32.535Z,45.79
2023-05-19T08:06:32.034Z,45.35
2023-05-19T08:07:32.033Z,45.25
2023-05-19T08:08:32.015Z,45.14
2023-05-19T08:09:32.138Z,45.33
2023-05-19T08:10:32.237Z,45.37
2023-05-19T08:11:32.174Z,45.10
2023-05-19T08:12:32.262Z,44.42
2023-05-19T08:13:32.183Z,44.27
2023-05-19T08:14:32.298Z,44.51
2023-05-19T08:15:32.870Z,44.82
2023-05-19T08:16:32.461Z,45.01
2023-05-19T08:17:32.564Z,45.09
2023-05-19T08:18:32.531Z,44.35
2023-05-19T08:19:32.709Z,44.68
2023-05-19T08:20:32.936Z,44.42
2023-05-19T08:21:32.685Z,44.82
2023-05-19T08:22:32.765Z,45.30
2023-05-19T08:23:32.795Z,44.67
2023-05-19T08:24:32.904Z,44.11
2023-05-19T08:25:32.856Z,44.23
2023-05-19T08:26:34.121Z,44.39
2023-05-19T08:27:32.946Z,44.22
2023-05-19T08:28:32.903Z,44.74
2023-05-19T08:29:32.990Z,43.94
2023-05-19T08:30:33.173Z,43.81
2023-05-19T08:31:33.047Z,43.90
2023-05-19T08:32:33.204Z,43.45
2023-05-19T08:33:33.058Z,43.28
2023-05-19T08:34:33.124Z,43.36
2023-05-19T08:35:33.067Z,43.60
2023-05-19T08:36:33.108Z,43.50
2023-05-19T08:37:34.070Z,43.44
2023-05-19T08:38:33.268Z,44.33
2023-05-19T08:39:33.269Z,43.88
2023-05-19T08:40:33.622Z,43.56
2023-05-19T08:41:33.424Z,44.14
2023-05-19T08:42:33.470Z,42.96
2023-05-19T08:43:33.513Z,43.33
2023-05-19T08:44:33.560Z,43.31
2023-05-19T08:45:33.735Z,43.66
2023-05-19T08:46:33.711Z,43.32
2023-05-19T08:47:33.834Z,43.37
2023-05-19T08:48:33.803Z,41.96
2023-05-19T08:49:33.814Z,41.65
2023-05-19T08:50:34.052Z,40.90
2023-05-19T08:51:33.877Z,41.05
2023-05-19T08:52:33.923Z,43.28
2023-05-19T08:53:34.752Z,42.97
2023-05-19T08:54:33.963Z,42.15
2023-05-19T08:55:34.424Z,41.98
2023-05-19T08:56:34.015Z,42.60
2023-05-19T08:57:33.953Z,42.62
2023-05-19T08:58:34.031Z,42.46
2023-05-19T08:59:34.043Z,42.28
2023-05-19T09:00:34.350Z,42.58
2023-05-19T09:02:34.224Z,42.90
2023-05-19T09:03:34.203Z,41.93
2023-05-19T09:04:34.395Z,41.92
2023-05-19T09:05:34.479Z,42.32
2023-05-19T09:06:34.179Z,43.48
2023-05-19T09:07:34.208Z,42.81
2023-05-19T09:08:34.214Z,42.00
2023-05-19T09:09:34.341Z,42.31
2023-05-19T09:10:34.363Z,42.56
2023-05-19T09:11:34.408Z,42.54
2023-05-19T09:12:34.473Z,42.07
2023-05-19T09:13:34.537Z,42.28
2023-05-19T09:14:34.534Z,42.81
2023-05-19T09:15:34.925Z,40.72
2023-05-19T09:16:34.602Z,40.46
2023-05-19T09:17:34.615Z,40.92
2023-05-19T09:18:34.702Z,41.06
2023-05-19T09:19:34.776Z,41.49
2023-05-19T09:20:34.675Z,41.58
2023-05-19T09:21:34.708Z,41.55
2023-05-19T09:22:34.703Z,40.53
2023-05-19T09:23:34.720Z,41.66
2023-05-19T09:24:34.784Z,41.43
2023-05-19T09:25:35.002Z,41.48
2023-05-19T09:26:34.780Z,41.85
2023-05-19T09:27:34.833Z,42.57
2023-05-19T09:28:34.830Z,40.96
2023-05-19T09:29:34.851Z,41.34
2023-05-19T09:30:34.868Z,41.05
2023-05-19T09:31:34.911Z,40.75
2023-05-19T09:32:34.925Z,40.82
2023-05-19T09:33:34.933Z,40.84
2023-05-19T09:34:34.892Z,41.60
2023-05-19T09:35:35.251Z,41.25
2023-05-19T09:36:34.904Z,40.94
2023-05-19T09:37:34.918Z,40.84
2023-05-19T09:38:35.019Z,39.84
2023-05-19T09:39:35.047Z,39.97
2023-05-19T09:40:35.145Z,39.69
2023-05-19T09:41:35.154Z,39.94
2023-05-19T09:42:35.183Z,40.01
2023-05-19T09:43:35.201Z,40.73
2023-05-19T09:44:35.238Z,39.92
2023-05-19T09:45:35.247Z,39.22
2023-05-19T09:46:35.426Z,39.31
2023-05-19T09:47:35.378Z,41.12
2023-05-19T09:48:35.307Z,40.02
2023-05-19T09:49:35.321Z,39.66
2023-05-19T09:50:35.359Z,40.38
2023-05-19T09:51:35.426Z,40.81
2023-05-19T09:52:35.527Z,38.86
2023-05-19T09:53:35.528Z,38.82
2023-05-19T09:54:35.554Z,39.93
2023-05-19T09:55:35.604Z,39.10
2023-05-19T09:56:35.530Z,40.51
2023-05-19T09:57:35.659Z,40.35
2023-05-19T09:58:35.725Z,41.81
2023-05-19T09:59:35.676Z,41.48
2023-05-19T10:00:35.680Z,41.49
2023-05-19T10:01:35.691Z,38.17
2023-05-19T10:02:35.718Z,39.64
2023-05-19T10:03:35.691Z,38.93
2023-05-19T10:04:35.720Z,40.36
2023-05-19T10:05:35.889Z,39.60
2023-05-19T10:06:35.725Z,39.48
2023-05-19T10:07:35.825Z,39.32
2023-05-19T10:08:35.747Z,39.21
2023-05-19T10:09:35.816Z,37.50
2023-05-19T10:10:35.902Z,37.40
2023-05-19T10:11:35.904Z,37.79
2023-05-19T10:12:35.872Z,38.33
2023-05-19T10:13:35.976Z,37.99
2023-05-19T10:14:35.975Z,38.93
2023-05-19T10:15:40.642Z,38.95
2023-05-19T10:16:37.080Z,38.28
2023-05-19T10:17:35.966Z,38.89
2023-05-19T10:18:37.539Z,40.40
2023-05-19T10:19:36.008Z,39.05
2023-05-19T10:20:35.936Z,38.56
2023-05-19T10:21:35.936Z,37.93
2023-05-19T10:22:35.985Z,38.13
2023-05-19T10:23:35.922Z,38.47
2023-05-19T10:24:35.934Z,38.49
2023-05-19T10:25:35.908Z,39.39
2023-05-19T10:26:35.968Z,38.78
2023-05-19T10:27:36.512Z,39.18
2023-05-19T10:28:35.904Z,38.30
2023-05-19T10:29:35.878Z,37.31
2023-05-19T10:30:35.891Z,37.63
2023-05-19T10:31:35.984Z,38.91
2023-05-19T10:32:35.923Z,39.84
2023-05-19T10:33:35.850Z,38.50
2023-05-19T10:34:35.916Z,37.79
2023-05-19T10:35:36.099Z,39.43
2023-05-19T10:36:35.910Z,39.28
2023-05-19T10:37:35.856Z,40.19
2023-05-19T10:38:35.843Z,39.34
2023-05-19T10:39:35.836Z,38.78
2023-05-19T10:40:35.788Z,37.84
2023-05-19T10:41:35.772Z,38.54
2023-05-19T10:42:35.764Z,38.38
2023-05-19T10:43:35.795Z,38.46
2023-05-19T10:44:35.791Z,39.41
2023-05-19T10:45:36.011Z,39.07
2023-05-19T10:46:35.733Z,40.55
2023-05-19T10:47:35.821Z,40.09
2023-05-19T10:48:35.732Z,40.22
2023-05-19T10:49:35.743Z,38.84
2023-05-19T10:50:35.753Z,40.48
2023-05-19T10:51:35.745Z,39.69
2023-05-19T10:52:35.737Z,39.58
2023-05-19T10:53:35.787Z,39.85
2023-05-19T10:54:35.762Z,39.16
2023-05-19T10:55:35.809Z,38.43
2023-05-19T10:56:35.706Z,39.12
2023-05-19T10:57:35.707Z,40.83
2023-05-19T10:58:35.687Z,38.95
2023-05-19T10:59:35.682Z,39.88
2023-05-19T11:00:35.695Z,40.03
2023-05-19T11:01:35.747Z,40.92
2023-05-19T11:02:35.708Z,42.69
2023-05-19T11:03:35.691Z,40.80
2023-05-19T11:04:35.671Z,39.31
2023-05-19T11:05:35.812Z,39.17
2023-05-19T11:06:35.638Z,40.05
2023-05-19T11:07:35.633Z,40.43
2023-05-19T11:08:35.658Z,39.46
2023-05-19T11:09:40.593Z,40.75
2023-05-19T11:10:36.598Z,39.86
2023-05-19T11:11:35.562Z,38.93
2023-05-19T11:12:35.660Z,38.81
2023-05-19T11:13:36.730Z,37.55
2023-05-19T11:14:35.572Z,38.55
2023-05-19T11:15:35.601Z,37.84
2023-05-19T11:16:35.659Z,38.41
2023-05-19T11:17:35.579Z,38.58
2023-05-19T11:18:35.607Z,37.86
2023-05-19T11:19:35.652Z,37.17
2023-05-19T11:20:35.576Z,37.61
2023-05-19T11:21:35.612Z,36.40
2023-05-19T11:22:36.146Z,37.69
2023-05-19T11:23:35.798Z,36.56
2023-05-19T11:24:35.653Z,37.56
2023-05-19T11:25:35.653Z,37.10
2023-05-19T11:26:35.691Z,38.61
2023-05-19T11:27:35.701Z,38.20
2023-05-19T11:28:35.747Z,37.86
2023-05-19T11:29:35.807Z,38.74
2023-05-19T11:30:35.719Z,37.96
2023-05-19T11:31:35.858Z,37.62
2023-05-19T11:32:35.982Z,38.55
2023-05-19T11:33:35.824Z,37.86
2023-05-19T11:34:35.854Z,38.35
2023-05-19T11:35:36.372Z,37.78
2023-05-19T11:36:35.863Z,40.25
2023-05-19T11:37:35.955Z,39.26
2023-05-19T11:38:35.977Z,39.24
2023-05-19T11:39:36.072Z,38.36
2023-05-19T11:40:36.089Z,38.90
2023-05-19T11:41:36.100Z,38.24
2023-05-19T11:42:36.159Z,37.30
2023-05-19T11:43:36.188Z,38.66
2023-05-19T11:44:36.292Z,37.95
2023-05-19T11:45:36.536Z,38.00
2023-05-19T11:46:36.277Z,38.11
2023-05-19T11:47:47.414Z,36.32
2023-05-19T11:48:37.343Z,36.86
2023-05-19T11:49:36.267Z,37.75
2023-05-19T11:50:36.282Z,36.63
2023-05-19T11:51:36.242Z,37.78
2023-05-19T11:52:36.275Z,37.68
2023-05-19T11:53:36.220Z,35.15
2023-05-19T11:54:36.186Z,35.33
2023-05-19T11:55:36.222Z,35.41
2023-05-19T11:56:36.184Z,36.83
2023-05-19T11:57:36.192Z,36.67
2023-05-19T11:58:36.190Z,37.41
2023-05-19T11:59:37.734Z,36.53
2023-05-19T12:00:36.213Z,36.46
2023-05-19T12:01:36.219Z,36.73
2023-05-19T12:02:36.417Z,36.92
2023-05-19T12:03:36.471Z,37.22
2023-05-19T12:04:36.287Z,36.97
2023-05-19T12:05:39.844Z,37.42
2023-05-19T12:06:37.315Z,36.20
2023-05-19T12:07:36.361Z,37.09
2023-05-19T12:08:36.188Z,36.03
2023-05-19T12:09:36.257Z,35.90
2023-05-19T12:10:36.236Z,35.43
2023-05-19T12:11:36.206Z,36.32
2023-05-19T12:12:36.186Z,35.52
2023-05-19T12:13:36.202Z,35.85
2023-05-19T12:14:36.230Z,35.73
2023-05-19T12:15:36.229Z,36.21
2023-05-19T12:16:36.252Z,35.34
2023-05-19T12:17:36.236Z,35.56
2023-05-19T12:18:36.184Z,36.30
2023-05-19T12:19:36.260Z,36.00
2023-05-19T12:20:36.635Z,35.91
2023-05-19T12:21:36.322Z,35.57
2023-05-19T12:22:36.321Z,34.93
2023-05-19T12:23:36.358Z,34.88
2023-05-19T12:24:36.434Z,34.83
2023-05-19T12:25:36.647Z,35.49
2023-05-19T12:26:36.417Z,35.41
2023-05-19T12:27:36.523Z,35.46
2023-05-19T12:28:36.504Z,36.30
2023-05-19T12:29:36.499Z,35.45
2023-05-19T12:30:36.799Z,35.35
2023-05-19T12:31:36.563Z,35.01
2023-05-19T12:32:36.595Z,35.03
2023-05-19T12:33:36.599Z,35.26
2023-05-19T12:34:36.593Z,34.88
2023-05-19T12:35:36.657Z,34.95
2023-05-19T12:36:36.761Z,35.91
2023-05-19T12:37:36.781Z,35.44
2023-05-19T12:38:36.781Z,34.48
2023-05-19T12:39:36.792Z,33.67
2023-05-19T12:40:37.196Z,33.59
2023-05-19T12:41:36.971Z,33.93
2023-05-19T12:42:36.980Z,33.33
2023-05-19T12:43:36.912Z,33.97
2023-05-19T12:44:36.984Z,33.30
2023-05-19T12:45:37.277Z,33.47
2023-05-19T12:46:37.065Z,35.30
2023-05-19T12:47:37.086Z,34.19
2023-05-19T12:48:37.051Z,34.38
2023-05-19T12:49:37.059Z,34.74
2023-05-19T12:50:37.153Z,34.77
2023-05-19T12:51:37.121Z,34.86
2023-05-19T12:52:37.183Z,35.25
2023-05-19T12:53:37.200Z,34.42
2023-05-19T12:54:37.316Z,35.62
2023-05-19T12:55:37.230Z,34.21
2023-05-19T12:56:37.312Z,33.70